createdAt,value
2022-09-25T00:02:59.675Z,17.85
2022-09-25T00:06:06.845Z,17.90
2022-09-25T00:09:10.205Z,17.80
2022-09-25T00:12:12.177Z,18.52
2022-09-25T00:15:13.823Z,16.48
2022-09-25T00:18:17.055Z,15.73
2022-09-25T00:21:20.426Z,15.88
2022-09-25T00:24:22.450Z,13.70
2022-09-25T00:27:27.493Z,15.13
2022-09-25T00:30:29.668Z,17.23
2022-09-25T00:33:32.698Z,20.10
2022-09-25T00:36:35.367Z,18.80
2022-09-25T00:39:40.023Z,21.20
2022-09-25T00:42:41.687Z,19.38
2022-09-25T00:45:44.429Z,17.48
2022-09-25T00:48:52.977Z,18.58
2022-09-25T00:52:00.109Z,22.02
2022-09-25T00:55:07.962Z,21.95
2022-09-25T00:58:16.990Z,24.48
2022-09-25T01:01:18.719Z,26.10
2022-09-25T01:04:22.593Z,28.63
2022-09-25T01:07:24.326Z,25.02
2022-09-25T01:10:26.759Z,23.33
2022-09-25T01:13:29.949Z,23.88
2022-09-25T01:16:40.893Z,27.00
2022-09-25T01:19:53.109Z,25.08
2022-09-25T01:23:32.731Z,24.00
2022-09-25T01:26:56.207Z,19.55
2022-09-25T01:30:11.618Z,18.35
2022-09-25T01:33:28.589Z,20.50
2022-09-25T01:36:40.075Z,16.38
2022-09-25T01:39:49.076Z,18.02
2022-09-25T01:43:16.644Z,18.23
2022-09-25T01:49:32.509Z,15.63
2022-09-25T01:52:49.554Z,18.38
2022-09-25T01:55:56.610Z,16.10
2022-09-25T01:59:12.901Z,19.20
2022-09-25T02:02:35.250Z,22.42
2022-09-25T02:05:52.260Z,21.33
2022-09-25T02:09:03.469Z,20.92
2022-09-25T02:12:27.922Z,25.70
2022-09-25T02:15:37.085Z,23.52
2022-09-25T02:18:57.757Z,26.70
2022-09-25T02:22:08.099Z,26.17
2022-09-25T02:25:19.990Z,25.75
2022-09-25T02:28:23.219Z,24.23
2022-09-25T02:31:55.879Z,23.90
2022-09-25T02:34:59.914Z,21.45
2022-09-25T02:38:02.951Z,19.17
2022-09-25T02:41:18.515Z,20.88
2022-09-25T02:44:23.080Z,23.85
2022-09-25T02:47:49.060Z,18.15
2022-09-25T02:51:05.375Z,22.92
2022-09-25T02:54:34.527Z,21.30
2022-09-25T02:57:54.449Z,21.35
2022-09-25T03:00:58.700Z,21.00
2022-09-25T03:04:01.802Z,17.58
2022-09-25T03:07:05.495Z,20.00
2022-09-25T03:10:08.545Z,21.13
2022-09-25T03:13:56.582Z,20.75
2022-09-25T03:17:02.228Z,23.27
2022-09-25T03:20:30.780Z,25.15
2022-09-25T03:23:32.849Z,20.80
2022-09-25T03:26:34.496Z,22.42
2022-09-25T03:29:37.789Z,22.55
2022-09-25T03:32:42.189Z,17.90
2022-09-25T03:35:43.850Z,18.30
2022-09-25T03:38:47.703Z,18.90
2022-09-25T03:41:52.422Z,19.50
2022-09-25T03:44:54.350Z,19.75
2022-09-25T03:47:56.059Z,18.45
2022-09-25T03:50:57.843Z,18.13
2022-09-25T03:54:06.259Z,18.33
2022-09-25T03:57:15.328Z,21.15
2022-09-25T04:00:16.961Z,17.20
2022-09-25T04:03:18.678Z,19.42
2022-09-25T04:06:24.384Z,20.05
2022-09-25T04:09:26.164Z,20.83
2022-09-25T04:12:28.546Z,22.38
2022-09-25T04:15:30.233Z,18.23
2022-09-25T04:18:32.384Z,19.40
2022-09-25T04:21:34.063Z,21.45
2022-09-25T04:24:50.780Z,21.02
2022-09-25T04:28:00.451Z,18.58
2022-09-25T04:31:03.854Z,17.05
2022-09-25T04:34:13.613Z,19.00
2022-09-25T04:37:15.901Z,21.35
2022-09-25T04:40:17.689Z,21.70
2022-09-25T04:43:19.434Z,21.98
2022-09-25T04:46:22.837Z,23.88
2022-09-25T04:49:24.764Z,22.05
2022-09-25T04:52:26.367Z,25.67
2022-09-25T04:55:28.363Z,21.85
2022-09-25T04:58:30.043Z,23.75
2022-09-25T05:01:53.608Z,22.55
2022-09-25T05:05:03.305Z,19.30
2022-09-25T05:08:27.915Z,19.77
2022-09-25T05:11:31.585Z,14.27
2022-09-25T05:14:55.582Z,17.10
2022-09-25T05:18:29.707Z,14.77
2022-09-25T05:21:54.920Z,14.60
2022-09-25T05:24:59.032Z,14.30
2022-09-25T05:28:07.376Z,13.52
2022-09-25T05:31:10.932Z,16.00
2022-09-25T05:34:16.554Z,13.80
2022-09-25T05:37:19.304Z,14.63
2022-09-25T05:40:43.436Z,9.90
2022-09-25T05:43:50.382Z,18.85
2022-09-25T05:46:52.080Z,12.93
2022-09-25T05:49:53.914Z,13.95
2022-09-25T05:52:58.578Z,11.20
2022-09-25T05:56:03.852Z,12.90
2022-09-25T05:59:05.609Z,14.57
2022-09-25T06:02:14.206Z,13.18
2022-09-25T06:05:17.033Z,13.32
2022-09-25T06:08:18.919Z,12.90
2022-09-25T06:11:20.755Z,10.98
2022-09-25T06:14:22.664Z,14.68
2022-09-25T06:17:24.340Z,12.10
2022-09-25T06:20:26.023Z,17.45
2022-09-25T06:23:30.682Z,16.17
2022-09-25T06:26:34.087Z,14.63
2022-09-25T06:29:36.544Z,14.73
2022-09-25T06:32:46.578Z,15.52
2022-09-25T06:35:53.086Z,14.23
2022-09-25T06:38:55.767Z,12.88
2022-09-25T06:41:57.414Z,13.13
2022-09-25T06:44:59.058Z,12.40
2022-09-25T06:48:01.981Z,11.75
2022-09-25T06:51:03.833Z,17.65
2022-09-25T06:54:05.472Z,10.25
2022-09-25T06:57:09.272Z,11.32
2022-09-25T07:00:11.593Z,14.45
2022-09-25T07:03:31.954Z,12.38
2022-09-25T07:06:35.103Z,13.05
2022-09-25T07:09:36.929Z,13.20
2022-09-25T07:17:20.018Z,9.50
2022-09-25T07:20:22.327Z,13.77
2022-09-25T07:23:23.941Z,12.43
2022-09-25T07:26:28.209Z,13.52
2022-09-25T07:29:30.561Z,11.15
2022-09-25T07:32:32.282Z,9.45
2022-09-25T07:35:35.137Z,18.00
2022-09-25T07:38:37.030Z,15.75
2022-09-25T07:41:38.950Z,11.32
2022-09-25T07:44:44.641Z,15.98
2022-09-25T07:47:49.163Z,13.98
2022-09-25T07:50:51.742Z,13.40
2022-09-25T07:53:53.338Z,11.27
2022-09-25T07:56:55.015Z,13.15
2022-09-25T07:59:56.666Z,14.75
2022-09-25T08:02:59.739Z,12.55
2022-09-25T08:06:10.405Z,13.43
2022-09-25T08:09:12.272Z,10.88
2022-09-25T08:12:13.856Z,15.35
2022-09-25T08:15:16.412Z,11.90
2022-09-25T08:18:17.986Z,14.85
2022-09-25T08:21:20.665Z,12.27
2022-09-25T08:24:22.352Z,15.27
2022-09-25T08:27:23.943Z,12.25
2022-09-25T08:30:25.468Z,13.48
2022-09-25T08:33:27.549Z,13.90
2022-09-25T08:36:29.228Z,10.90
2022-09-25T08:39:30.764Z,10.80
2022-09-25T08:42:37.126Z,10.77
2022-09-25T08:46:02.186Z,7.90
2022-09-25T08:49:07.227Z,13.45
2022-09-25T08:52:15.639Z,9.43
2022-09-25T08:55:22.837Z,8.25
2022-09-25T08:58:29.776Z,10.30
2022-09-25T09:01:43.460Z,10.35
2022-09-25T09:04:45.066Z,8.68
2022-09-25T09:07:54.025Z,11.25
2022-09-25T09:11:11.344Z,12.95
2022-09-25T09:14:18.522Z,10.18
2022-09-25T09:17:24.706Z,9.73
2022-09-25T09:20:42.989Z,7.72
2022-09-25T09:24:18.700Z,7.18
2022-09-25T09:27:32.475Z,8.48
2022-09-25T09:30:51.643Z,7.93
2022-09-25T09:34:40.994Z,8.73
2022-09-25T09:38:16.436Z,7.47
2022-09-25T09:41:45.912Z,9.35
2022-09-25T09:44:50.986Z,10.00
2022-09-25T09:48:04.687Z,12.20
2022-09-25T09:51:16.039Z,11.50
2022-09-25T09:54:42.986Z,11.68
2022-09-25T09:57:51.193Z,7.82
2022-09-25T10:00:52.881Z,10.68
2022-09-25T10:04:05.204Z,9.50
2022-09-25T10:07:13.793Z,10.00
2022-09-25T10:29:01.452Z,8.02
2022-09-25T10:32:04.151Z,8.02
2022-09-25T10:35:06.313Z,9.40
2022-09-25T10:38:43.926Z,7.45
2022-09-25T10:41:47.280Z,6.25
2022-09-25T10:45:16.871Z,6.95
